createdAt,value
2022-11-16T00:02:23.012Z,81.98
2022-11-16T00:04:51.277Z,81.72
2022-11-16T00:07:19.314Z,81.63
2022-11-16T00:09:47.418Z,81.63
2022-11-16T00:12:15.486Z,81.76
2022-11-16T00:14:43.564Z,81.71
2022-11-16T00:17:11.493Z,81.39
2022-11-16T00:19:39.499Z,81.14
2022-11-16T00:22:07.572Z,81.05
2022-11-16T00:24:35.743Z,80.97
2022-11-16T00:27:03.927Z,80.87
2022-11-16T00:29:31.888Z,80.86
2022-11-16T00:31:59.959Z,80.65
2022-11-16T00:34:28.747Z,80.35
2022-11-16T00:36:56.819Z,79.89
2022-11-16T00:39:25.198Z,79.89
2022-11-16T00:41:53.267Z,79.82
2022-11-16T00:44:21.466Z,79.42
2022-11-16T00:46:49.623Z,79.69
2022-11-16T00:49:17.694Z,79.63
2022-11-16T00:51:45.760Z,79.73
2022-11-16T00:54:14.044Z,80.06
2022-11-16T00:56:42.313Z,80.13
2022-11-16T00:59:10.398Z,80.47
2022-11-16T01:01:38.727Z,80.47
2022-11-16T01:04:07.658Z,80.63
2022-11-16T01:06:37.187Z,80.60
2022-11-16T01:09:05.235Z,80.93
2022-11-16T01:11:51.847Z,81.04
2022-11-16T01:14:19.930Z,81.25
2022-11-16T01:16:50.853Z,81.31
2022-11-16T01:19:19.030Z,81.41
2022-11-16T01:21:47.109Z,81.63
2022-11-16T01:24:15.176Z,81.50
2022-11-16T01:26:43.555Z,81.29
2022-11-16T01:29:11.831Z,81.42
2022-11-16T01:31:43.707Z,81.45
2022-11-16T01:34:11.762Z,81.58
2022-11-16T01:36:39.830Z,81.75
2022-11-16T01:39:08.822Z,81.64
2022-11-16T01:41:44.472Z,82.18
2022-11-16T01:44:15.622Z,82.32
2022-11-16T01:46:54.486Z,82.30
2022-11-16T01:49:25.686Z,82.43
2022-11-16T01:52:02.066Z,82.67
2022-11-16T01:54:37.730Z,82.85
2022-11-16T01:57:09.854Z,82.72
2022-11-16T01:59:47.791Z,82.82
2022-11-16T02:02:19.121Z,83.24
2022-11-16T02:04:49.075Z,83.31
2022-11-16T02:07:24.601Z,83.78
2022-11-16T02:10:19.693Z,84.74
2022-11-16T02:13:22.167Z,85.61
2022-11-16T02:16:03.962Z,85.64
2022-11-16T02:18:59.270Z,85.27
2022-11-16T02:21:43.011Z,84.35
2022-11-16T02:24:42.832Z,83.60
2022-11-16T02:27:32.715Z,83.53
2022-11-16T02:30:01.529Z,82.82
2022-11-16T02:32:48.026Z,82.61
2022-11-16T02:35:25.394Z,82.52
2022-11-16T02:38:07.295Z,82.17
2022-11-16T02:40:39.379Z,81.92
2022-11-16T02:43:10.066Z,81.46
2022-11-16T02:45:47.800Z,81.27
2022-11-16T02:48:25.380Z,81.41
2022-11-16T02:50:54.680Z,81.62
2022-11-16T02:53:25.218Z,81.49
2022-11-16T02:55:53.794Z,81.34
2022-11-16T02:58:25.534Z,81.09
2022-11-16T03:01:17.006Z,81.49
2022-11-16T03:04:16.583Z,81.70
2022-11-16T03:06:48.891Z,81.85
2022-11-16T03:09:27.578Z,82.29
2022-11-16T03:12:00.817Z,82.26
2022-11-16T03:14:40.416Z,82.72
2022-11-16T03:17:16.060Z,83.01
2022-11-16T03:20:15.530Z,83.11
2022-11-16T03:22:54.892Z,83.06
2022-11-16T03:25:29.646Z,83.08
2022-11-16T03:28:43.484Z,83.26
2022-11-16T03:31:16.982Z,83.46
2022-11-16T03:33:56.126Z,83.24
2022-11-16T03:36:27.359Z,83.19
2022-11-16T03:39:01.422Z,83.04
2022-11-16T03:41:33.253Z,82.75
2022-11-16T03:44:02.293Z,82.69
2022-11-16T03:46:30.501Z,82.50
2022-11-16T03:49:01.226Z,82.37
2022-11-16T03:51:32.682Z,82.30
2022-11-16T03:54:00.863Z,82.44
2022-11-16T03:56:29.342Z,82.53
2022-11-16T03:58:58.330Z,82.82
2022-11-16T04:01:26.469Z,83.21
2022-11-16T04:03:54.689Z,83.40
2022-11-16T04:06:41.701Z,83.35
2022-11-16T04:09:29.326Z,83.51
2022-11-16T04:12:16.157Z,83.45
2022-11-16T04:15:03.356Z,83.56
2022-11-16T04:17:50.789Z,83.70
2022-11-16T04:20:37.499Z,83.53
2022-11-16T04:23:32.107Z,84.22
2022-11-16T04:26:00.568Z,84.82
2022-11-16T04:28:32.187Z,84.62
2022-11-16T04:31:23.028Z,84.91
2022-11-16T04:34:24.147Z,84.73
2022-11-16T04:37:12.595Z,84.16
2022-11-16T04:39:41.210Z,83.91
2022-11-16T04:42:19.259Z,83.10
2022-11-16T04:45:07.047Z,83.53
2022-11-16T04:47:44.136Z,83.80
2022-11-16T04:50:12.384Z,83.72
2022-11-16T04:52:41.299Z,83.71
2022-11-16T04:55:12.791Z,83.89
2022-11-16T04:57:40.927Z,83.95
2022-11-16T05:00:09.993Z,84.01
2022-11-16T05:02:38.607Z,83.80
2022-11-16T05:05:07.911Z,83.37
2022-11-16T05:07:37.257Z,83.26
2022-11-16T05:10:13.374Z,83.41
2022-11-16T05:12:41.623Z,83.38
2022-11-16T05:15:10.336Z,82.95
2022-11-16T05:17:38.509Z,82.62
2022-11-16T05:20:29.412Z,82.76
2022-11-16T05:23:01.692Z,82.84
2022-11-16T05:25:36.939Z,82.69
2022-11-16T05:28:07.555Z,82.73
2022-11-16T05:30:38.806Z,82.85
2022-11-16T05:33:07.086Z,82.94
2022-11-16T05:35:38.330Z,82.58
2022-11-16T05:38:06.396Z,82.19
2022-11-16T05:40:36.414Z,81.78
2022-11-16T05:43:04.493Z,82.20
2022-11-16T05:45:35.470Z,82.10
2022-11-16T05:48:03.803Z,81.79
2022-11-16T05:50:33.105Z,81.80
2022-11-16T05:53:06.090Z,81.81
2022-11-16T05:55:36.345Z,81.84
2022-11-16T05:58:04.281Z,82.06
2022-11-16T06:00:32.229Z,82.14
2022-11-16T06:03:00.676Z,82.01
2022-11-16T06:05:39.021Z,82.21
2022-11-16T06:08:08.976Z,82.01
2022-11-16T06:10:37.149Z,81.52
2022-11-16T06:13:05.536Z,81.43
2022-11-16T06:15:38.511Z,81.30
2022-11-16T06:18:08.012Z,81.20
2022-11-16T06:20:39.562Z,81.13
2022-11-16T06:23:07.741Z,80.92
2022-11-16T06:25:39.083Z,81.06
2022-11-16T06:28:08.246Z,81.33
2022-11-16T06:30:38.511Z,81.91
2022-11-16T06:33:07.397Z,82.70
2022-11-16T06:35:35.570Z,83.39
2022-11-16T06:38:04.492Z,83.97
2022-11-16T06:40:33.359Z,84.59
2022-11-16T06:43:02.344Z,85.62
2022-11-16T06:45:30.471Z,86.24
2022-11-16T06:48:00.128Z,86.70
2022-11-16T06:50:28.303Z,87.44
2022-11-16T06:52:56.577Z,87.99
2022-11-16T06:55:24.863Z,88.27
2022-11-16T06:57:53.540Z,88.30
2022-11-16T07:00:22.117Z,88.18
2022-11-16T07:02:50.762Z,87.99
2022-11-16T07:05:20.014Z,87.79
2022-11-16T07:07:48.244Z,87.65
2022-11-16T07:10:16.869Z,87.39
2022-11-16T07:12:44.957Z,87.03
2022-11-16T07:15:13.939Z,86.96
2022-11-16T07:17:43.015Z,86.44
2022-11-16T07:20:12.237Z,85.51
2022-11-16T07:22:40.718Z,85.13
2022-11-16T07:25:11.564Z,84.32
2022-11-16T07:27:39.626Z,84.81
2022-11-16T07:30:08.407Z,85.58
2022-11-16T07:33:08.741Z,85.41
2022-11-16T07:36:09.901Z,85.00
2022-11-16T07:38:39.286Z,84.58
2022-11-16T07:41:11.086Z,84.77
2022-11-16T07:43:51.461Z,85.14
2022-11-16T07:49:18.269Z,85.41
2022-11-16T07:51:55.665Z,85.39
2022-11-16T07:54:35.408Z,85.05
2022-11-16T07:57:04.398Z,85.85
2022-11-16T07:59:32.578Z,85.49
2022-11-16T08:02:01.716Z,84.93
2022-11-16T08:04:29.867Z,84.75
2022-11-16T08:06:59.376Z,84.97
2022-11-16T08:09:27.838Z,85.09
2022-11-16T08:11:55.905Z,84.83
2022-11-16T08:14:24.693Z,84.76
2022-11-16T08:16:53.892Z,84.67
2022-11-16T08:19:21.841Z,84.15
2022-11-16T08:21:49.927Z,84.19
2022-11-16T08:24:18.617Z,84.20
2022-11-16T08:26:46.999Z,85.83
2022-11-16T08:29:16.087Z,85.79
2022-11-16T08:31:48.668Z,85.86
2022-11-16T08:34:19.812Z,85.61
2022-11-16T08:36:50.960Z,85.29
2022-11-16T08:39:20.424Z,85.19
2022-11-16T08:41:48.539Z,85.63
2022-11-16T08:44:16.711Z,86.15
2022-11-16T08:46:46.833Z,85.60
2022-11-16T08:49:22.890Z,85.35
2022-11-16T08:51:50.960Z,85.31
2022-11-16T08:54:20.358Z,85.77
2022-11-16T08:56:49.250Z,86.01
2022-11-16T08:59:18.150Z,86.18
2022-11-16T09:01:52.220Z,86.55
2022-11-16T09:04:20.315Z,85.47
2022-11-16T09:06:48.445Z,84.58
2022-11-16T09:09:16.682Z,84.79
2022-11-16T09:11:44.967Z,84.68
2022-11-16T09:14:13.025Z,84.30
2022-11-16T09:16:41.098Z,84.43
2022-11-16T09:19:09.496Z,83.55
2022-11-16T09:21:37.748Z,84.84
2022-11-16T09:24:06.129Z,85.53
2022-11-16T09:26:34.132Z,85.12
2022-11-16T09:29:04.531Z,85.31
2022-11-16T09:31:34.850Z,85.61
2022-11-16T09:34:03.132Z,85.99
2022-11-16T09:36:31.204Z,85.59
2022-11-16T09:39:30.187Z,85.52
2022-11-16T09:41:59.599Z,85.27
2022-11-16T09:44:30.338Z,84.24
2022-11-16T09:46:59.861Z,83.91
2022-11-16T09:49:33.442Z,84.03
2022-11-16T09:52:03.668Z,83.01
2022-11-16T09:54:35.606Z,83.30
2022-11-16T09:57:12.050Z,83.21
2022-11-16T09:59:46.721Z,83.78
2022-11-16T10:02:24.116Z,83.68
2022-11-16T10:04:57.733Z,84.05
2022-11-16T10:07:31.873Z,83.29
2022-11-16T10:10:00.203Z,82.73
2022-11-16T10:12:28.180Z,82.97
2022-11-16T10:15:12.872Z,82.62
2022-11-16T10:17:58.729Z,82.64
2022-11-16T10:20:45.130Z,82.90
2022-11-16T10:23:16.168Z,81.86
2022-11-16T10:25:45.690Z,81.27
2022-11-16T10:28:22.733Z,80.89
2022-11-16T10:31:03.230Z,81.04
2022-11-16T10:33:36.324Z,81.03
2022-11-16T10:36:08.987Z,80.63
2022-11-16T10:38:37.988Z,80.16
2022-11-16T10:41:14.665Z,80.29
2022-11-16T10:43:43.442Z,80.06
2022-11-16T10:46:23.911Z,80.43
2022-11-16T10:48:57.608Z,80.72
2022-11-16T10:51:25.683Z,80.91
2022-11-16T10:53:54.344Z,80.51
2022-11-16T10:56:25.512Z,80.20
2022-11-16T10:58:56.766Z,80.42
2022-11-16T11:01:32.163Z,80.72
2022-11-16T11:04:29.255Z,80.88
2022-11-16T11:06:58.759Z,80.82
2022-11-16T11:09:26.863Z,80.83
2022-11-16T11:12:20.609Z,81.11
2022-11-16T11:15:21.404Z,81.98
2022-11-16T11:18:12.016Z,82.21
2022-11-16T11:20:44.861Z,82.22
2022-11-16T11:23:18.941Z,82.32
2022-11-16T11:25:54.183Z,82.40
2022-11-16T11:28:28.548Z,82.38
2022-11-16T11:30:59.344Z,82.47
2022-11-16T11:33:33.892Z,82.74
2022-11-16T11:36:02.145Z,82.64
2022-11-16T11:38:30.721Z,82.68
2022-11-16T11:41:00.327Z,83.20
2022-11-16T11:43:29.320Z,83.10
2022-11-16T11:46:04.107Z,81.78
2022-11-16T11:48:37.856Z,80.10
2022-11-16T11:51:32.045Z,79.67
2022-11-16T11:54:01.040Z,78.99
2022-11-16T11:56:30.954Z,78.28
2022-11-16T11:58:58.927Z,77.22
2022-11-16T12:01:45.430Z,76.00
2022-11-16T12:04:31.956Z,75.94
2022-11-16T12:06:59.945Z,76.34
2022-11-16T12:09:42.921Z,76.31
2022-11-16T12:12:19.697Z,77.05
2022-11-16T12:15:06.203Z,77.33
2022-11-16T12:18:12.588Z,77.36
2022-11-16T12:21:01.224Z,78.13
2022-11-16T12:23:58.687Z,78.66
2022-11-16T12:26:32.496Z,79.12
2022-11-16T12:29:03.534Z,79.19
2022-11-16T12:31:50.344Z,79.13
2022-11-16T12:34:37.151Z,79.31
2022-11-16T12:37:05.128Z,79.62
2022-11-16T12:39:43.441Z,79.65
2022-11-16T12:42:24.094Z,79.72
2022-11-16T12:44:58.334Z,80.02
2022-11-16T12:47:35.605Z,80.38
2022-11-16T12:50:22.517Z,80.39
2022-11-16T12:53:06.055Z,80.60
2022-11-16T12:55:36.994Z,81.21
2022-11-16T12:58:04.971Z,81.39
2022-11-16T13:00:48.218Z,81.42
2022-11-16T13:03:21.275Z,81.26
2022-11-16T13:05:49.243Z,81.15
2022-11-16T13:08:32.477Z,81.09
2022-11-16T13:11:09.252Z,80.82
2022-11-16T13:13:38.386Z,80.48
2022-11-16T13:16:07.541Z,80.21
2022-11-16T13:18:38.692Z,80.59
2022-11-16T13:21:21.302Z,81.24
2022-11-16T13:24:08.121Z,81.33
2022-11-16T13:26:54.663Z,81.73
2022-11-16T13:29:30.495Z,82.10
2022-11-16T13:32:02.859Z,82.61
2022-11-16T13:34:32.757Z,83.31
2022-11-16T13:37:00.831Z,83.53
2022-11-16T13:39:54.503Z,83.76
2022-11-16T13:42:22.475Z,82.14
2022-11-16T13:44:51.756Z,82.45
2022-11-16T13:47:24.968Z,83.63
2022-11-16T13:50:03.483Z,84.33
2022-11-16T13:55:35.062Z,84.08
2022-11-16T13:58:04.668Z,83.25
2022-11-16T14:00:41.690Z,83.61
2022-11-16T14:03:15.963Z,84.29
2022-11-16T14:05:45.432Z,84.43
2022-11-16T14:08:19.584Z,85.01
2022-11-16T14:10:50.517Z,85.22
2022-11-16T14:13:37.345Z,85.10
2022-11-16T14:16:17.330Z,85.63
2022-11-16T14:18:48.330Z,85.54
2022-11-16T14:21:19.363Z,85.74
2022-11-16T14:23:53.493Z,85.97
2022-11-16T14:26:21.450Z,86.06
2022-11-16T14:29:00.576Z,85.94
2022-11-16T14:31:45.546Z,85.43
2022-11-16T14:34:19.191Z,85.74
2022-11-16T14:36:47.524Z,85.57
2022-11-16T14:39:17.137Z,85.32
2022-11-16T14:41:46.439Z,85.33
2022-11-16T14:44:18.909Z,85.22
2022-11-16T14:46:46.986Z,85.13
2022-11-16T14:49:16.699Z,85.10
2022-11-16T14:51:47.480Z,85.16
2022-11-16T14:54:26.051Z,85.32
2022-11-16T14:57:01.700Z,85.32
2022-11-16T14:59:30.686Z,85.19
2022-11-16T15:02:01.831Z,85.44
2022-11-16T15:04:30.113Z,85.43
2022-11-16T15:06:59.566Z,85.56
2022-11-16T15:09:29.629Z,85.88
2022-11-16T15:12:16.811Z,85.80
2022-11-16T15:14:47.892Z,85.67
2022-11-16T15:17:17.500Z,85.49
2022-11-16T15:19:54.072Z,85.53
2022-11-16T15:22:22.557Z,85.39
2022-11-16T15:24:54.824Z,85.05
2022-11-16T15:27:31.394Z,85.19
2022-11-16T15:30:01.417Z,85.33
2022-11-16T15:32:29.483Z,85.15
2022-11-16T15:35:02.478Z,85.02
2022-11-16T15:37:33.208Z,84.90
2022-11-16T15:40:02.617Z,85.27
2022-11-16T15:42:30.686Z,85.12
2022-11-16T15:45:00.395Z,84.83
2022-11-16T15:47:28.257Z,84.80
2022-11-16T15:49:56.437Z,84.82
2022-11-16T15:52:47.648Z,85.06
2022-11-16T15:55:31.913Z,84.92
2022-11-16T15:58:05.089Z,84.91
2022-11-16T16:00:35.112Z,85.00
2022-11-16T16:03:07.995Z,85.23
2022-11-16T16:05:40.071Z,85.15
2022-11-16T16:08:24.514Z,85.18
2022-11-16T16:11:01.494Z,85.34
2022-11-16T16:13:32.734Z,85.52
2022-11-16T16:16:19.654Z,85.59
2022-11-16T16:18:47.935Z,85.67
2022-11-16T16:21:16.417Z,85.97
2022-11-16T16:23:46.434Z,86.20
2022-11-16T16:26:14.840Z,86.26
2022-11-16T16:28:43.296Z,86.21
2022-11-16T16:31:11.674Z,85.31
2022-11-16T16:33:39.639Z,86.09
2022-11-16T16:36:08.224Z,86.44
2022-11-16T16:38:35.997Z,86.18
2022-11-16T16:41:04.985Z,86.12
2022-11-16T16:43:33.158Z,87.21
2022-11-16T16:46:02.763Z,87.69
2022-11-16T16:48:31.252Z,88.10
2022-11-16T16:50:59.213Z,88.42
2022-11-16T16:53:27.142Z,88.36
2022-11-16T16:55:55.041Z,87.76
2022-11-16T16:58:22.926Z,86.95
2022-11-16T17:00:51.144Z,87.73
2022-11-16T17:03:19.093Z,88.50
2022-11-16T17:05:47.029Z,89.02
2022-11-16T17:08:15.000Z,89.26
2022-11-16T17:10:42.866Z,89.43
2022-11-16T17:13:10.844Z,89.37
2022-11-16T17:15:38.710Z,89.35
2022-11-16T17:18:06.575Z,89.38
2022-11-16T17:20:34.438Z,89.93
2022-11-16T17:23:03.230Z,90.43
2022-11-16T17:25:33.079Z,90.55
2022-11-16T17:28:01.036Z,90.39
2022-11-16T17:30:30.414Z,90.63
2022-11-16T17:32:58.388Z,90.68
2022-11-16T17:35:26.356Z,90.18
2022-11-16T17:37:54.324Z,90.12
2022-11-16T17:40:22.216Z,90.53
2022-11-16T17:42:50.159Z,90.79
2022-11-16T17:45:18.023Z,90.63
2022-11-16T17:47:45.889Z,90.65
2022-11-16T17:50:14.095Z,90.70
2022-11-16T17:52:42.042Z,90.40
2022-11-16T17:55:09.899Z,90.21
2022-11-16T17:57:37.767Z,89.84
2022-11-16T18:00:06.564Z,89.51
2022-11-16T18:02:34.527Z,89.00
2022-11-16T18:05:02.603Z,88.77
2022-11-16T18:07:30.518Z,88.87
2022-11-16T18:09:58.440Z,88.82
2022-11-16T18:12:26.507Z,88.58
2022-11-16T18:15:21.340Z,88.44
2022-11-16T18:17:42.257Z,88.43
2022-11-16T18:20:10.487Z,88.34
2022-11-16T18:22:38.575Z,88.37
2022-11-16T18:25:07.552Z,88.39
2022-11-16T18:27:35.315Z,88.12
2022-11-16T18:30:03.223Z,88.03
2022-11-16T18:32:31.157Z,87.98
2022-11-16T18:34:59.537Z,87.77
2022-11-16T18:37:27.505Z,87.48
2022-11-16T18:39:55.409Z,87.43
2022-11-16T18:42:23.254Z,87.52
2022-11-16T18:44:51.612Z,87.78
2022-11-16T18:47:19.479Z,87.60
2022-11-16T18:49:47.314Z,87.65
2022-11-16T18:52:15.220Z,87.68
2022-11-16T18:54:43.093Z,87.64
2022-11-16T18:57:11.272Z,87.65
2022-11-16T18:59:39.129Z,87.68
2022-11-16T19:02:06.994Z,87.45
2022-11-16T19:04:34.962Z,87.06
2022-11-16T19:07:02.976Z,86.65
2022-11-16T19:09:31.106Z,86.37
2022-11-16T19:11:58.973Z,86.33
2022-11-16T19:14:26.842Z,86.17
2022-11-16T19:16:57.349Z,86.22
2022-11-16T19:19:27.900Z,86.12
2022-11-16T19:21:57.107Z,86.14
2022-11-16T19:24:24.959Z,86.00
2022-11-16T19:26:53.133Z,86.29
2022-11-16T19:29:21.000Z,86.40
2022-11-16T19:31:49.073Z,86.40
2022-11-16T19:34:16.944Z,86.48
2022-11-16T19:36:44.815Z,86.48
2022-11-16T19:39:12.780Z,86.29
2022-11-16T19:41:40.644Z,86.23
2022-11-16T19:44:08.621Z,86.47
2022-11-16T19:46:36.787Z,86.46
2022-11-16T19:49:04.766Z,86.20
2022-11-16T19:51:33.754Z,86.22
2022-11-16T19:54:02.551Z,86.30
2022-11-16T19:56:30.606Z,86.28
2022-11-16T19:58:58.688Z,86.29
2022-11-16T20:01:29.537Z,86.16
2022-11-16T20:03:58.920Z,86.10
2022-11-16T20:06:29.327Z,86.06
2022-11-16T20:09:00.702Z,86.15
2022-11-16T20:11:29.927Z,86.07
2022-11-16T20:13:58.551Z,85.98
2022-11-16T20:16:27.606Z,85.99
2022-11-16T20:18:55.754Z,86.21
2022-11-16T20:21:25.764Z,86.22
2022-11-16T20:23:54.042Z,86.13
2022-11-16T20:26:22.933Z,86.12
2022-11-16T20:28:52.644Z,86.04
2022-11-16T20:31:21.917Z,85.96
2022-11-16T20:33:51.248Z,85.82
2022-11-16T20:36:19.826Z,85.39
2022-11-16T20:38:47.802Z,85.34
2022-11-16T20:41:19.965Z,85.76
2022-11-16T20:43:50.495Z,85.84
2022-11-16T20:46:19.078Z,85.88
2022-11-16T20:48:47.469Z,86.32
2022-11-16T20:51:17.075Z,86.43
2022-11-16T20:53:46.166Z,86.52
2022-11-16T20:56:14.949Z,86.33
2022-11-16T20:58:43.333Z,86.41
2022-11-16T21:01:15.638Z,86.10
2022-11-16T21:03:45.008Z,85.73
2022-11-16T21:06:13.795Z,85.81
2022-11-16T21:08:42.175Z,85.47
2022-11-16T21:11:14.444Z,85.34
2022-11-16T21:14:00.642Z,85.34
2022-11-16T21:16:28.504Z,85.43
2022-11-16T21:18:56.578Z,85.37
2022-11-16T21:21:24.965Z,85.41
2022-11-16T21:23:54.203Z,85.36
2022-11-16T21:26:23.355Z,85.22
2022-11-16T21:28:52.092Z,85.37
2022-11-16T21:31:21.696Z,85.59
2022-11-16T21:33:49.620Z,85.98
2022-11-16T21:36:18.608Z,86.11
2022-11-16T21:38:47.090Z,86.38
2022-11-16T21:41:15.883Z,86.48
2022-11-16T21:43:44.409Z,86.45
2022-11-16T21:46:13.768Z,86.55
2022-11-16T21:48:41.943Z,86.68
2022-11-16T21:51:11.142Z,86.87
2022-11-16T21:53:39.412Z,87.01
2022-11-16T21:56:08.307Z,87.13
2022-11-16T21:58:36.169Z,87.40
2022-11-16T22:01:04.181Z,87.97
2022-11-16T22:03:32.795Z,88.29
2022-11-16T22:06:20.661Z,88.10
2022-11-16T22:08:48.940Z,88.04
2022-11-16T22:11:16.925Z,88.53
2022-11-16T22:13:44.773Z,88.74
2022-11-16T22:16:15.211Z,89.04
2022-11-16T22:18:43.278Z,89.02
2022-11-16T22:21:11.504Z,89.05
2022-11-16T22:23:39.728Z,89.01
2022-11-16T22:26:08.944Z,89.66
2022-11-16T22:28:37.621Z,90.13
2022-11-16T22:31:06.515Z,90.06
2022-11-16T22:33:35.078Z,90.16
2022-11-16T22:36:04.037Z,90.22
2022-11-16T22:38:33.528Z,90.43
2022-11-16T22:41:01.560Z,90.48
2022-11-16T22:43:30.573Z,90.66
2022-11-16T22:46:02.754Z,90.89
2022-11-16T22:48:31.301Z,91.05
2022-11-16T22:51:15.343Z,90.89
2022-11-16T22:53:43.210Z,90.96
2022-11-16T22:56:11.289Z,90.97
2022-11-16T22:58:39.867Z,90.97
2022-11-16T23:01:09.071Z,91.11
2022-11-16T23:03:37.783Z,91.22
2022-11-16T23:06:06.746Z,91.01
2022-11-16T23:08:35.328Z,90.96
2022-11-16T23:11:23.778Z,90.65
2022-11-16T23:14:11.307Z,90.28
2022-11-16T23:16:39.671Z,89.97
2022-11-16T23:19:28.343Z,89.81
2022-11-16T23:22:15.177Z,89.70
2022-11-16T23:25:02.173Z,89.67
2022-11-16T23:27:38.544Z,89.39
2022-11-16T23:30:12.100Z,89.26
2022-11-16T23:32:41.538Z,88.92
2022-11-16T23:35:09.918Z,89.05
2022-11-16T23:37:51.663Z,88.94
2022-11-16T23:40:20.398Z,88.95
2022-11-16T23:43:07.116Z,88.81
2022-11-16T23:45:34.980Z,88.68
2022-11-16T23:48:02.839Z,88.53
2022-11-16T23:50:30.714Z,88.40
2022-11-16T23:52:58.579Z,88.40
2022-11-16T23:55:27.022Z,88.40
2022-11-16T23:57:55.336Z,88.34
